Time;durP1;ratioP1;P1;durP2;ratioP2;P2;SDS_P1;SDS_P2;PMS_P1;PMS_P2;Temp;Humidity;BMP_temperature;BMP_pressure;BME280_temperature;BME280_humidity;BME280_pressure;Samples;Min_cycle;Max_cycle;Signal;HPM_P1;HPM_P2
2024/01/18 00:01:31;;;;;;;4.40;4.00;;;;;;;1.58;100.00;14357.84;5035913;28;20186;-74
2024/01/18 00:03:58;;;;;;;3.47;2.43;;;;;;;1.59;100.00;14358.19;5044560;28;20193;-76
2024/01/18 00:06:23;;;;;;;3.13;2.87;;;;;;;1.62;100.00;14359.06;5031555;28;20190;-77
2024/01/18 00:08:49;;;;;;;3.87;2.57;;;;;;;1.65;100.00;13724.75;5031588;28;20270;-79
2024/01/18 00:11:15;;;;;;;2.30;2.17;;;;;;;1.42;100.00;14034.53;5031804;28;20179;-75
2024/01/18 00:13:41;;;;;;;2.43;2.33;;;;;;;1.77;100.00;14046.72;5031698;28;20640;-78
2024/01/18 00:16:07;;;;;;;6.10;4.27;;;;;;;1.75;100.00;14045.84;5031682;28;20253;-79
2024/01/18 00:18:32;;;;;;;2.50;2.30;;;;;;;1.81;100.00;14365.53;5032090;28;20207;-78
2024/01/18 00:20:57;;;;;;;1.93;1.83;;;;;;;1.74;100.00;14045.69;5031116;28;20329;-75
2024/01/18 00:23:23;;;;;;;2.73;2.53;;;;;;;1.94;100.00;13734.38;5030847;28;20582;-78
2024/01/18 00:25:48;;;;;;;2.70;2.50;;;;;;;1.96;100.00;13735.22;5030929;28;20190;-74
2024/01/18 00:28:14;;;;;;;1.57;1.50;;;;;;;1.85;100.00;14049.28;5030675;28;20558;-75
2024/01/18 00:30:39;;;;;;;2.67;2.47;;;;;;;1.92;100.00;13415.94;5031703;28;20635;-77
2024/01/18 00:33:05;;;;;;;3.87;3.57;;;;;;;2.05;100.00;13420.25;5030377;28;20227;-77
2024/01/18 00:35:30;;;;;;;3.70;3.40;;;;;;;2.05;100.00;12784.81;5030524;28;20181;-76
2024/01/18 00:37:56;;;;;;;3.87;2.30;;;;;;;2.13;100.00;12787.41;5030466;28;20245;-78
2024/01/18 00:40:21;;;;;;;2.60;2.40;;;;;;;1.81;100.00;12459.44;5030679;28;20190;-73
2024/01/18 00:42:46;;;;;;;2.07;1.97;;;;;;;2.07;100.00;12467.53;5030396;28;20183;-76
2024/01/18 00:45:12;;;;;;;6.20;2.77;;;;;;;2.17;100.00;12470.72;5030477;28;20241;-78
2024/01/18 00:47:37;;;;;;;4.67;4.10;;;;;;;2.23;100.00;13108.50;5032493;28;20241;-77
2024/01/18 00:50:03;;;;;;;2.97;2.77;;;;;;;2.35;100.00;13112.28;5032884;28;20687;-78
2024/01/18 00:52:29;;;;;;;4.10;3.70;;;;;;;2.29;100.00;13746.22;5030831;28;20191;-75
2024/01/18 00:54:55;;;;;;;4.10;3.47;;;;;;;2.29;100.00;14064.06;5030815;28;20228;-74
2024/01/18 00:57:20;;;;;;;2.77;2.47;;;;;;;2.38;100.00;15021.69;5032205;28;20282;-76
2024/01/18 00:59:46;;;;;;;3.40;2.90;;;;;;;2.14;100.00;15013.03;5030472;28;20191;-76
2024/01/18 01:02:11;;;;;;;2.53;2.37;;;;;;;2.16;100.00;15332.00;5030399;28;20175;-76
2024/01/18 01:04:36;;;;;;;5.77;3.23;;;;;;;2.37;100.00;15975.72;5030058;28;20669;-78
2024/01/18 01:07:03;;;;;;;6.20;3.97;;;;;;;2.28;100.00;20111.69;5030514;28;20175;-76
2024/01/18 01:09:29;;;;;;;2.50;2.30;;;;;;;2.47;100.00;21076.38;5031744;28;20713;-74
2024/01/18 01:11:54;;;;;;;4.23;2.67;;;;;;;2.46;100.00;21075.91;5046094;28;20159;-78
2024/01/18 01:14:20;;;;;;;7.20;3.80;;;;;;;2.36;100.00;21390.06;5029758;28;20183;-79
2024/01/18 01:16:45;;;;;;;2.77;2.57;;;;;;;2.43;100.00;20436.84;5029731;28;20175;-76
2024/01/18 01:19:11;;;;;;;3.30;3.00;;;;;;;2.20;100.00;21382.84;5031104;28;20258;-74
2024/01/18 01:21:36;;;;;;;5.53;3.10;;;;;;;2.30;100.00;22981.03;5030245;28;20210;-74
2024/01/18 01:24:03;;;;;;;2.93;2.73;;;;;;;2.45;100.00;26818.44;5030108;28;20182;-74
2024/01/18 01:26:28;;;;;;;3.00;2.70;;;;;;;2.43;100.00;26497.75;5031110;28;20203;-74
2024/01/18 01:28:53;;;;;;;1.93;1.83;;;;;;;2.28;100.00;23298.94;5031298;28;20198;-75
2024/01/18 01:31:19;;;;;;;3.63;3.33;;;;;;;1.94;100.00;22007.88;5029828;28;20190;-78
2024/01/18 01:33:44;;;;;;;2.10;2.00;;;;;;;2.01;100.00;22011.19;5030013;28;20231;-77
2024/01/18 01:36:10;;;;;;;2.17;2.07;;;;;;;2.12;100.00;21060.50;5029834;28;20202;-76
2024/01/18 01:38:37;;;;;;;2.57;2.37;;;;;;;2.30;100.00;20749.88;5033839;28;20217;-77
2024/01/18 01:41:02;;;;;;;4.57;3.33;;;;;;;2.41;100.00;20436.16;5035223;28;20179;-73
2024/01/18 01:43:28;;;;;;;2.47;2.27;;;;;;;2.41;100.00;22030.03;5029816;28;20292;-78
2024/01/18 01:45:53;;;;;;;2.43;2.27;;;;;;;2.21;100.00;22976.84;5029882;28;20180;-76
2024/01/18 01:48:19;;;;;;;6.30;2.70;;;;;;;2.47;100.00;22351.53;5031577;28;20207;-77
2024/01/18 01:50:46;;;;;;;2.43;2.23;;;;;;;2.53;100.00;22354.69;5030008;28;20278;-75
2024/01/18 01:53:14;;;;;;;2.57;2.37;;;;;;;2.41;100.00;22348.88;5029843;28;20614;-76
2024/01/18 01:55:41;;;;;;;3.30;2.53;;;;;;;2.41;100.00;19798.84;5029234;28;20646;-76
2024/01/18 01:58:07;;;;;;;2.63;2.27;;;;;;;2.50;100.00;19165.47;5029529;28;20207;-76
2024/01/18 02:00:33;;;;;;;3.03;1.70;;;;;;;2.53;100.00;18848.16;5031188;28;20198;-74
2024/01/18 02:02:59;;;;;;;3.77;3.33;;;;;;;2.61;100.00;17895.72;5030989;28;20634;-77
2024/01/18 02:05:26;;;;;;;3.90;2.93;;;;;;;2.37;100.00;17249.16;5031308;28;20175;-77
2024/01/18 02:07:51;;;;;;;3.13;2.13;;;;;;;2.48;100.00;17571.97;5031136;28;20274;-78
2024/01/18 02:10:17;;;;;;;2.77;2.57;;;;;;;2.57;100.00;18531.22;5031280;28;20203;-81
2024/01/18 02:12:44;;;;;;;1.80;1.70;;;;;;;2.44;100.00;16615.19;5029490;28;20747;-78
2024/01/18 02:15:10;;;;;;;2.63;2.43;;;;;;;2.51;100.00;16617.69;5030588;28;20263;-76
2024/01/18 02:17:35;;;;;;;2.40;2.20;;;;;;;2.55;100.00;17574.56;5031158;28;20338;-75
2024/01/18 02:20:01;;;;;;;1.87;1.77;;;;;;;2.25;100.00;18836.28;5038396;28;20221;-73
2024/01/18 02:22:27;;;;;;;2.70;2.50;;;;;;;2.43;100.00;17251.53;5040834;28;20172;-80
2024/01/18 02:25:08;;;;;;;3.17;2.03;;;;;;;2.64;100.00;17896.75;5033342;28;20197;-78
2024/01/18 02:27:34;;;;;;;1.90;1.80;;;;;;;2.50;100.00;18209.75;5032944;28;20328;-77
2024/01/18 02:29:59;;;;;;;2.20;2.03;;;;;;;2.48;100.00;17571.97;5033140;28;20651;-76
2024/01/18 02:32:24;;;;;;;2.13;2.00;;;;;;;2.41;100.00;15977.41;5033345;28;20203;-77
2024/01/18 02:34:50;;;;;;;2.87;2.67;;;;;;;2.42;100.00;15977.59;5033023;28;20565;-76
2024/01/18 02:37:15;;;;;;;2.57;2.37;;;;;;;2.48;100.00;15343.31;5034728;28;20199;-75
2024/01/18 02:39:41;;;;;;;2.40;2.27;;;;;;;2.54;100.00;17255.91;5033183;28;20623;-78
2024/01/18 02:42:06;;;;;;;1.80;1.70;;;;;;;2.54;100.00;16937.44;5032973;28;20673;-78
2024/01/18 02:44:32;;;;;;;2.60;1.87;;;;;;;2.64;100.00;17259.88;5032694;28;20280;-78
2024/01/18 02:46:58;;;;;;;2.30;2.10;;;;;;;2.62;100.00;18214.72;5032786;28;20179;-75
2024/01/18 02:49:23;;;;;;;3.77;3.00;;;;;;;2.56;100.00;19168.06;5032247;28;20175;-76
2024/01/18 02:51:48;;;;;;;2.23;2.07;;;;;;;2.54;100.00;18211.41;5032636;28;20207;-78
2024/01/18 02:54:14;;;;;;;2.77;2.33;;;;;;;2.70;100.00;18217.59;5033469;28;20178;-78
2024/01/18 02:56:40;;;;;;;2.83;2.63;;;;;;;2.37;100.00;18204.19;5033350;28;20284;-78
2024/01/18 02:59:05;;;;;;;1.50;1.40;;;;;;;2.39;100.00;18842.00;5032287;28;20179;-77
2024/01/18 03:01:31;;;;;;;2.33;2.17;;;;;;;2.61;100.00;20445.16;5033861;28;20174;-77
2024/01/18 03:03:57;;;;;;;2.00;1.90;;;;;;;2.47;100.00;20119.94;5034060;28;20175;-78
2024/01/18 03:06:22;;;;;;;3.77;3.23;;;;;;;2.65;100.00;19490.41;5032239;28;20530;-75
2024/01/18 03:08:48;;;;;;;3.27;3.00;;;;;;;2.55;100.00;20123.50;5031921;28;20647;-76
2024/01/18 03:11:14;;;;;;;2.43;2.23;;;;;;;2.69;100.00;19810.94;5033426;28;20199;-76
2024/01/18 03:13:39;;;;;;;2.00;1.90;;;;;;;2.81;100.00;21410.81;5032308;28;20179;-76
2024/01/18 03:16:06;;;;;;;3.00;2.77;;;;;;;2.55;100.00;23950.78;5032655;28;20770;-77
2024/01/18 03:18:32;;;;;;;2.00;1.87;;;;;;;2.74;100.00;23002.50;5032190;28;20658;-75
2024/01/18 03:20:58;;;;;;;2.90;2.30;;;;;;;2.87;100.00;21413.63;5033409;28;20372;-78
2024/01/18 03:23:23;;;;;;;1.67;1.53;;;;;;;2.88;100.00;19500.19;5033209;28;20628;-75
2024/01/18 03:25:48;;;;;;;2.03;1.93;;;;;;;2.77;100.00;18857.91;5033321;28;20629;-77
2024/01/18 03:28:14;;;;;;;2.20;2.00;;;;;;;2.64;100.00;18215.34;5037238;28;20278;-76
2024/01/18 03:30:40;;;;;;;2.73;2.53;;;;;;;2.56;100.00;17256.50;5043414;28;20179;-75
2024/01/18 03:33:05;;;;;;;2.73;2.30;;;;;;;2.51;100.00;16936.28;5029595;28;20297;-77
2024/01/18 03:35:31;;;;;;;2.57;2.37;;;;;;;2.41;100.00;18843.06;5031116;28;20183;-78
2024/01/18 03:37:56;;;;;;;1.50;1.40;;;;;;;2.47;100.00;18527.06;5032977;28;20203;-76
2024/01/18 03:40:22;;;;;;;2.87;2.67;;;;;;;2.82;100.00;18860.03;5032147;28;20322;-75
2024/01/18 03:42:47;;;;;;;2.23;2.03;;;;;;;2.83;100.00;22049.59;5033033;28;20204;-77
2024/01/18 03:45:14;;;;;;;3.00;2.40;;;;;;;2.90;100.00;21733.84;5031938;28;20255;-74
2024/01/18 03:47:39;;;;;;;2.53;2.33;;;;;;;2.78;100.00;23004.47;5031175;28;20514;-76
2024/01/18 03:50:06;;;;;;;1.70;1.60;;;;;;;2.73;100.00;22044.81;5031512;28;20176;-76
2024/01/18 03:52:31;;;;;;;11.03;3.63;;;;;;;2.62;100.00;22040.03;5032304;28;20174;-77
2024/01/18 03:54:57;;;;;;;10.03;2.60;;;;;;;2.90;100.00;22691.19;5032602;28;20175;-74
2024/01/18 03:57:22;;;;;;;1.63;1.53;;;;;;;2.72;100.00;22363.59;5032642;28;20562;-75
2024/01/18 03:59:49;;;;;;;3.67;2.97;;;;;;;2.96;100.00;23013.59;5032500;28;20195;-75
2024/01/18 04:02:15;;;;;;;2.73;2.53;;;;;;;2.92;100.00;22373.25;5031341;28;20325;-77
2024/01/18 04:04:40;;;;;;;1.90;1.80;;;;;;;2.78;100.00;21409.19;5031101;28;20642;-76
2024/01/18 04:07:05;;;;;;;2.30;2.10;;;;;;;2.95;100.00;23332.09;5030971;28;20266;-77
2024/01/18 04:09:31;;;;;;;2.13;1.73;;;;;;;2.93;100.00;23650.59;5030793;28;20257;-77
2024/01/18 04:11:56;;;;;;;2.63;2.43;;;;;;;2.92;100.00;27802.94;5031156;28;20191;-74
2024/01/18 04:14:22;;;;;;;2.20;2.10;;;;;;;2.71;100.00;24916.13;5031042;28;20550;-74
2024/01/18 04:16:47;;;;;;;1.80;1.70;;;;;;;2.80;100.00;22367.47;5032102;28;20658;-77
2024/01/18 04:19:13;;;;;;;2.47;2.27;;;;;;;2.85;100.00;20774.47;5031117;28;20171;-78
2024/01/18 04:21:38;;;;;;;2.77;2.13;;;;;;;3.01;100.00;18549.22;5032340;28;20713;-78
2024/01/18 04:24:05;;;;;;;2.47;2.27;;;;;;;2.88;100.00;16950.38;5027999;28;20187;-77
2024/01/18 04:26:33;;;;;;;2.37;2.23;;;;;;;3.00;100.00;16955.09;5039393;28;20175;-75
2024/01/18 04:28:59;;;;;;;4.33;2.70;;;;;;;3.05;100.00;16957.25;5032095;28;20187;-75
2024/01/18 04:31:25;;;;;;;2.67;2.50;;;;;;;2.83;100.00;18541.91;5032105;28;20198;-78
2024/01/18 04:33:50;;;;;;;3.13;2.43;;;;;;;3.06;100.00;19189.09;5031754;28;20226;-74
2024/01/18 04:36:15;;;;;;;5.60;2.20;;;;;;;3.28;100.00;20794.09;5032993;28;20591;-74
2024/01/18 04:38:41;;;;;;;4.10;2.27;;;;;;;3.28;100.00;20155.56;5045080;28;20203;-75
2024/01/18 04:41:06;;;;;;;2.17;2.03;;;;;;;3.12;100.00;19829.63;5030801;28;20586;-74
2024/01/18 04:43:32;;;;;;;5.30;1.93;;;;;;;3.21;100.00;19195.53;5031660;28;20539;-75
2024/01/18 04:45:58;;;;;;;2.50;2.17;;;;;;;3.17;100.00;18555.72;5031024;28;20765;-77
2024/01/18 04:48:24;;;;;;;1.70;1.60;;;;;;;3.16;100.00;17598.75;5030801;28;20508;-77
2024/01/18 04:50:50;;;;;;;2.43;2.07;;;;;;;3.18;100.00;16324.69;5035032;28;20262;-75
2024/01/18 04:53:16;;;;;;;2.33;2.20;;;;;;;3.09;100.00;16640.13;5040457;28;20206;-73
2024/01/18 04:55:43;;;;;;;1.97;1.87;;;;;;;3.26;100.00;16646.50;5056488;28;20195;-74
2024/01/18 04:58:08;;;;;;;3.27;2.83;;;;;;;3.21;100.00;19514.56;5043485;28;20203;-75
2024/01/18 05:00:34;;;;;;;1.57;1.47;;;;;;;2.99;100.00;20780.88;5031485;28;20179;-78
2024/01/18 05:02:59;;;;;;;2.67;1.93;;;;;;;3.09;100.00;19828.31;5030324;28;20606;-73
2024/01/18 05:05:25;;;;;;;2.97;2.37;;;;;;;3.20;100.00;19514.13;5031223;28;20206;-76
2024/01/18 05:07:50;;;;;;;4.43;3.03;;;;;;;3.14;100.00;20149.31;5031167;28;20271;-75
2024/01/18 05:10:15;;;;;;;2.77;2.57;;;;;;;3.19;100.00;19832.50;5030071;28;20209;-76
2024/01/18 05:12:41;;;;;;;2.80;2.33;;;;;;;3.16;100.00;19831.16;5031223;28;20249;-77
2024/01/18 05:15:11;;;;;;;2.13;1.97;;;;;;;2.81;100.00;19816.22;5029817;28;20631;-77
2024/01/18 05:17:38;;;;;;;1.80;1.70;;;;;;;3.25;100.00;19835.13;5030239;28;20286;-77
2024/01/18 05:20:05;;;;;;;3.20;2.73;;;;;;;2.94;100.00;19821.72;5029336;28;20183;-76
2024/01/18 05:22:32;;;;;;;4.03;2.93;;;;;;;3.19;100.00;20151.78;5031040;28;20631;-77
2024/01/18 05:24:59;;;;;;;1.80;1.70;;;;;;;3.05;100.00;20145.75;5031027;28;20633;-77
2024/01/18 05:27:26;;;;;;;2.37;2.20;;;;;;;3.16;100.00;20469.50;5029547;28;20191;-78
2024/01/18 05:29:51;;;;;;;2.03;1.93;;;;;;;3.25;100.00;20154.22;5029501;28;20275;-79
2024/01/18 05:32:20;;;;;;;1.90;1.80;;;;;;;3.28;100.00;19836.69;5031342;28;20267;-74
2024/01/18 05:34:46;;;;;;;3.33;2.83;;;;;;;3.14;100.00;19192.53;5031491;28;20222;-80
2024/01/18 05:37:11;;;;;;;2.50;2.30;;;;;;;3.09;100.00;18871.69;5030440;28;20226;-81
2024/01/18 05:39:37;;;;;;;2.33;2.13;;;;;;;3.19;100.00;18556.78;5030582;28;20222;-79
2024/01/18 05:42:02;;;;;;;3.13;2.80;;;;;;;3.22;100.00;18238.91;5030024;28;20183;-77
2024/01/18 05:44:28;;;;;;;2.87;2.67;;;;;;;3.28;100.00;18241.38;5043236;28;20163;-80
2024/01/18 05:46:54;;;;;;;2.00;1.80;;;;;;;3.23;100.00;18558.25;5030693;28;20188;-79
2024/01/18 05:49:19;;;;;;;2.47;2.30;;;;;;;3.02;100.00;19825.22;5030014;28;20192;-80
2024/01/18 05:51:44;;;;;;;2.60;2.40;;;;;;;3.05;100.00;19507.81;5030442;28;20677;-81
2024/01/18 05:54:10;;;;;;;3.87;3.53;;;;;;;3.15;100.00;18236.22;5030277;28;20205;-78
2024/01/18 05:56:35;;;;;;;3.60;2.57;;;;;;;3.06;100.00;17595.09;5032070;28;20615;-79
2024/01/18 05:59:01;;;;;;;1.80;1.70;;;;;;;3.05;100.00;16957.25;5035367;28;20210;-77
2024/01/18 06:01:26;;;;;;;2.47;2.27;;;;;;;3.13;100.00;17597.72;5033842;28;20183;-79
2024/01/18 06:03:51;;;;;;;2.80;2.60;;;;;;;3.12;100.00;16959.81;5034693;28;20171;-78
2024/01/18 06:06:17;;;;;;;2.97;2.67;;;;;;;2.86;100.00;14720.19;5033462;28;20586;-74
2024/01/18 06:08:42;;;;;;;4.43;3.13;;;;;;;3.06;100.00;15045.81;5035357;28;20254;-78
2024/01/18 06:11:08;;;;;;;2.87;2.07;;;;;;;3.20;100.00;15688.09;5034613;28;20175;-75
2024/01/18 06:13:33;;;;;;;7.17;3.50;;;;;;;3.16;100.00;15367.81;5033359;28;20179;-76
2024/01/18 06:15:58;;;;;;;2.70;2.33;;;;;;;3.23;100.00;16326.41;5034875;28;20218;-79
2024/01/18 06:18:24;;;;;;;1.73;1.63;;;;;;;3.24;100.00;15689.56;5032643;28;20301;-78
2024/01/18 06:20:50;;;;;;;2.13;1.83;;;;;;;3.21;100.00;14095.56;5033978;28;20183;-76
2024/01/18 06:23:15;;;;;;;2.40;2.23;;;;;;;3.17;100.00;14094.19;5033593;28;20222;-77
2024/01/18 06:25:40;;;;;;;1.73;1.63;;;;;;;3.20;100.00;13776.56;5033162;28;20201;-78
2024/01/18 06:28:07;;;;;;;3.60;3.20;;;;;;;3.23;100.00;14733.34;5035074;28;20222;-77
2024/01/18 06:30:32;;;;;;;2.00;1.87;;;;;;;3.27;100.00;15371.84;5034697;28;20180;-78
2024/01/18 06:32:57;;;;;;;3.10;2.80;;;;;;;3.28;100.00;16647.09;5032360;28;20175;-76
2024/01/18 06:35:23;;;;;;;2.73;2.53;;;;;;;3.45;100.00;18248.44;5034753;28;20537;-78
2024/01/18 06:37:49;;;;;;;4.57;2.63;;;;;;;3.17;100.00;18237.03;5048145;28;20208;-77
2024/01/18 06:40:16;;;;;;;2.27;2.03;;;;;;;3.35;100.00;17606.59;5033424;28;20199;-80
2024/01/18 06:42:42;;;;;;;3.37;3.07;;;;;;;3.47;100.00;17292.47;5032580;28;20566;-77
2024/01/18 06:45:08;;;;;;;3.47;2.70;;;;;;;3.33;100.00;17605.59;5036643;28;20176;-75
2024/01/18 06:47:33;;;;;;;3.33;2.53;;;;;;;3.42;100.00;17928.19;5045217;28;20203;-77
2024/01/18 06:49:59;;;;;;;2.53;2.40;;;;;;;3.46;100.00;18248.84;5032204;28;20186;-78
2024/01/18 06:52:24;;;;;;;2.10;1.90;;;;;;;3.32;100.00;17924.09;5032716;28;20183;-76
2024/01/18 06:54:50;;;;;;;1.97;1.87;;;;;;;3.50;100.00;18888.66;5033622;28;20607;-80
2024/01/18 06:57:15;;;;;;;1.70;1.60;;;;;;;3.53;100.00;19528.25;5032293;28;20203;-80
2024/01/18 06:59:47;;;;;;;2.60;1.90;;;;;;;3.32;100.00;19838.44;5032607;28;20256;-81
2024/01/18 07:02:13;;;;;;;5.60;3.67;;;;;;;3.60;100.00;20488.91;5033311;28;20635;-80
2024/01/18 07:04:39;;;;;;;2.43;2.23;;;;;;;3.61;100.00;23684.16;5032262;28;20191;-80
2024/01/18 07:07:04;;;;;;;2.17;1.97;;;;;;;3.70;100.00;27207.31;5032235;28;20710;-81
2024/01/18 07:09:32;;;;;;;1.97;1.77;;;;;;;3.65;100.00;26884.53;5032258;28;20245;-79
2024/01/18 07:11:57;;;;;;;2.73;2.47;;;;;;;3.44;100.00;25274.19;5032062;28;20183;-77
2024/01/18 07:14:23;;;;;;;2.33;2.17;;;;;;;3.67;100.00;24007.09;5033672;28;20619;-78
2024/01/18 07:16:48;;;;;;;3.00;2.80;;;;;;;3.65;100.00;24645.25;5031714;28;20237;-80
2024/01/18 07:19:13;;;;;;;2.67;2.47;;;;;;;3.84;100.00;26574.78;5032036;28;20186;-76
2024/01/18 07:21:40;;;;;;;2.67;2.47;;;;;;;3.82;100.00;24334.28;5032061;28;20184;-78
2024/01/18 07:24:06;;;;;;;2.67;2.47;;;;;;;3.87;100.00;22099.03;5033666;28;20219;-78
2024/01/18 07:26:34;;;;;;;2.67;2.47;;;;;;;3.81;100.00;22096.16;5031458;28;20229;-79
2024/01/18 07:29:00;;;;;;;2.43;2.23;;;;;;;3.81;100.00;24653.59;5031170;28;20673;-77
2024/01/18 07:31:25;;;;;;;2.23;2.03;;;;;;;4.01;100.00;23384.50;5031148;28;20183;-78
2024/01/18 07:33:50;;;;;;;3.20;2.97;;;;;;;4.07;100.00;23067.44;5032365;28;20684;-78
2024/01/18 07:36:17;;;;;;;2.67;2.47;;;;;;;4.10;100.00;23389.00;5031303;28;20187;-79
2024/01/18 07:38:43;;;;;;;2.67;2.47;;;;;;;4.13;100.00;26270.38;5032471;28;20195;-74
2024/01/18 07:41:09;;;;;;;3.33;2.97;;;;;;;4.42;100.00;31094.38;5032574;28;20686;-78
2024/01/18 07:43:35;;;;;;;3.37;2.17;;;;;;;4.60;100.00;37850.31;5031418;28;20179;-79
2024/01/18 07:46:01;;;;;;;4.43;2.93;;;;;;;4.40;100.00;41504.31;5031064;28;20233;-81
2024/01/18 07:48:26;;;;;;;2.63;2.33;;;;;;;4.36;100.00;34620.59;5035064;28;20236;-76
2024/01/18 07:50:51;;;;;;;3.00;2.70;;;;;;;4.45;100.00;31738.22;5045560;28;20233;-75
2024/01/18 07:53:18;;;;;;;2.33;2.13;;;;;;;4.25;100.00;34292.38;5031199;28;20274;-80
2024/01/18 07:55:44;;;;;;;2.00;1.90;;;;;;;4.43;100.00;34304.66;5032391;28;20331;-79
2024/01/18 07:58:10;;;;;;;1.80;1.70;;;;;;;4.62;100.00;33995.78;5031183;28;20203;-78
2024/01/18 08:00:35;;;;;;;2.67;2.43;;;;;;;4.58;100.00;35277.84;5031457;28;20180;-79
2024/01/18 08:03:01;;;;;;;2.70;2.50;;;;;;;4.60;100.00;33673.28;5031628;28;20244;-78
2024/01/18 08:05:27;;;;;;;7.80;3.23;;;;;;;4.28;100.00;32689.44;5032354;28;20643;-81
2024/01/18 08:07:53;;;;;;;2.50;2.10;;;;;;;4.42;100.00;33019.88;5031073;28;20190;-78
2024/01/18 08:10:19;;;;;;;2.47;2.37;;;;;;;4.52;100.00;30459.09;5031011;28;20602;-78
2024/01/18 08:12:45;;;;;;;2.30;2.10;;;;;;;4.62;100.00;28861.56;5030911;28;20194;-78
2024/01/18 08:15:12;;;;;;;2.47;2.27;;;;;;;4.62;100.00;28861.28;5030263;28;20241;-76
2024/01/18 08:17:37;;;;;;;3.83;3.20;;;;;;;4.77;100.00;29511.69;5031968;28;20682;-78
2024/01/18 08:20:12;;;;;;;2.53;2.33;;;;;;;4.91;100.00;31124.88;5030500;28;20189;-76
2024/01/18 08:22:42;;;;;;;8.07;2.47;;;;;;;5.00;100.00;32736.31;5032139;28;20195;-76
2024/01/18 08:25:08;;;;;;;3.63;2.73;;;;;;;5.16;100.00;36604.88;5031121;28;20179;-76
2024/01/18 08:27:33;;;;;;;2.90;2.67;;;;;;;5.21;100.00;40944.41;5030407;28;20647;-80
2024/01/18 08:29:59;;;;;;;1.63;1.53;;;;;;;5.24;100.00;44892.91;5031319;28;20180;-79
2024/01/18 08:32:31;;;;;;;3.03;2.80;;;;;;;4.98;100.00;46329.16;5030953;28;20230;-77
2024/01/18 08:34:57;;;;;;;2.43;2.33;;;;;;;5.27;100.00;47320.03;5030525;28;20319;-79
2024/01/18 08:37:23;;;;;;;2.97;2.77;;;;;;;5.46;100.00;49916.06;5030808;28;20237;-77
2024/01/18 08:39:48;;;;;;;3.53;3.23;;;;;;;5.42;100.00;51767.63;5032645;28;20416;-78
2024/01/18 08:42:14;;;;;;;2.50;2.30;;;;;;;5.13;100.00;51326.34;5030329;28;20242;-78
2024/01/18 08:44:45;;;;;;;2.60;2.40;;;;;;;5.36;100.00;50873.47;5030722;28;20189;-80
2024/01/18 08:47:11;;;;;;;4.80;2.77;;;;;;;5.43;100.00;51152.41;5030594;28;20633;-78
2024/01/18 08:49:37;;;;;;;2.77;2.57;;;;;;;5.29;100.00;51856.94;5030433;28;20178;-77
2024/01/18 08:52:02;;;;;;;3.73;2.27;;;;;;;5.42;100.00;52002.50;5037168;28;20227;-78
2024/01/18 08:54:28;;;;;;;3.67;2.03;;;;;;;5.43;100.00;51783.75;5038369;28;20639;-78
2024/01/18 08:56:54;;;;;;;3.87;2.30;;;;;;;5.06;100.00;49750.16;5031324;28;20167;-79
2024/01/18 08:59:20;;;;;;;3.80;2.80;;;;;;;5.29;100.00;52058.94;5029765;28;20180;-77
2024/01/18 09:01:47;;;;;;;2.10;1.97;;;;;;;5.20;100.00;46232.22;5030463;28;20663;-75
2024/01/18 09:04:13;;;;;;;2.00;1.90;;;;;;;5.40;100.00;47313.63;5030051;28;20167;-79
2024/01/18 09:06:38;;;;;;;1.47;1.40;;;;;;;5.50;100.00;50101.16;5030651;28;20708;-78
2024/01/18 09:09:04;;;;;;;1.97;1.83;;;;;;;5.81;100.00;50486.25;5030540;28;20790;-77
2024/01/18 09:11:30;;;;;;;4.07;2.50;;;;;;;5.94;100.00;52124.25;5029856;28;20190;-79
2024/01/18 09:13:55;;;;;;;3.63;3.33;;;;;;;5.86;100.00;56352.91;5032500;28;20654;-78
2024/01/18 09:16:21;;;;;;;3.67;2.60;;;;;;;6.26;100.00;57956.91;5030369;28;20233;-79
2024/01/18 09:18:46;;;;;;;4.10;3.73;;;;;;;6.10;100.00;57653.97;5030444;28;20298;-80
2024/01/18 09:21:12;;;;;;;2.30;2.10;;;;;;;6.17;100.00;57656.94;5030830;28;20171;-78
2024/01/18 09:23:37;;;;;;;2.10;2.00;;;;;;;6.26;100.00;58139.88;5030567;28;20611;-78
2024/01/18 09:26:03;;;;;;;3.37;2.33;;;;;;;6.17;100.00;58667.81;5029986;28;20540;-78
2024/01/18 09:28:28;;;;;;;1.60;1.50;;;;;;;5.65;100.00;58102.25;5030328;28;20249;-79
2024/01/18 09:30:54;;;;;;;2.53;2.33;;;;;;;5.54;100.00;57460.25;5030819;28;20263;-77
2024/01/18 09:33:19;;;;;;;2.97;2.77;;;;;;;5.39;100.00;56688.41;5034102;28;20226;-77
2024/01/18 09:35:44;;;;;;;2.67;2.10;;;;;;;5.39;100.00;57419.41;5034443;28;20270;-80
2024/01/18 09:38:10;;;;;;;5.33;2.67;;;;;;;5.76;100.00;57859.00;5035253;28;20203;-79
2024/01/18 09:40:38;;;;;;;2.27;2.10;;;;;;;5.56;100.00;57814.13;5034072;28;20284;-79
2024/01/18 09:43:07;;;;;;;3.90;2.80;;;;;;;5.72;100.00;58090.13;5034383;28;20194;-79
2024/01/18 09:45:38;;;;;;;3.37;2.53;;;;;;;5.83;100.00;58338.97;5034273;28;20655;-80
2024/01/18 09:48:07;;;;;;;3.57;2.30;;;;;;;5.88;100.00;58671.09;5033777;28;20205;-77
2024/01/18 09:50:39;;;;;;;4.93;2.97;;;;;;;5.85;100.00;58318.88;5035659;28;20510;-79
2024/01/18 09:53:06;;;;;;;2.37;2.13;;;;;;;5.76;100.00;58291.38;5034543;28;20175;-78
2024/01/18 09:55:34;;;;;;;3.57;3.17;;;;;;;6.05;100.00;58274.75;5049580;28;20244;-79
2024/01/18 09:58:02;;;;;;;2.40;2.20;;;;;;;6.34;100.00;58566.69;5035547;28;20195;-78
2024/01/18 10:00:31;;;;;;;2.87;2.67;;;;;;;6.50;100.00;58745.84;5033820;28;20218;-79
2024/01/18 10:02:57;;;;;;;3.53;3.00;;;;;;;6.67;100.00;59302.06;5033981;28;20557;-80
2024/01/18 10:05:25;;;;;;;5.90;3.70;;;;;;;6.77;100.00;59417.09;5033700;28;20176;-79
2024/01/18 10:07:51;;;;;;;3.37;3.07;;;;;;;6.87;100.00;59554.47;5035678;28;20631;-78
2024/01/18 10:10:18;;;;;;;2.93;2.43;;;;;;;6.81;100.00;59621.41;5035031;28;20218;-78
2024/01/18 10:12:47;;;;;;;3.43;3.10;;;;;;;6.71;100.00;59577.91;5042445;28;20678;-74
2024/01/18 10:15:35;;;;;;;2.83;2.63;;;;;;;6.86;100.00;59642.72;5034717;28;20189;-78
2024/01/18 10:18:05;;;;;;;4.47;2.53;;;;;;;6.93;100.00;59543.34;5033942;28;20224;-76
2024/01/18 10:20:31;;;;;;;3.23;3.03;;;;;;;6.83;100.00;59517.63;5032417;28;20274;-75
2024/01/18 10:23:01;;;;;;;4.37;3.30;;;;;;;7.02;100.00;59659.88;5032615;28;20176;-78
2024/01/18 10:25:27;;;;;;;2.43;2.23;;;;;;;6.91;100.00;59533.50;5034879;28;20182;-76
2024/01/18 10:27:56;;;;;;;3.23;2.60;;;;;;;6.83;100.00;59572.88;5033634;28;20575;-74
2024/01/18 10:30:23;;;;;;;1.93;1.83;;;;;;;6.76;100.00;59588.50;5033162;28;20186;-77
2024/01/18 10:32:49;;;;;;;2.37;2.23;;;;;;;6.92;100.00;59466.09;5033051;28;20189;-76
2024/01/18 10:35:24;;;;;;;4.27;3.33;;;;;;;6.75;100.00;59186.59;5033135;28;20554;-80
2024/01/18 10:38:27;;;;;;;3.77;3.13;;;;;;;6.86;100.00;59094.66;5034805;28;20195;-73
2024/01/18 10:40:53;;;;;;;3.43;2.23;;;;;;;6.66;100.00;59123.97;5036799;28;20614;-76
2024/01/18 10:43:18;;;;;;;4.70;3.33;;;;;;;6.90;100.00;59068.63;5033780;28;20179;-76
2024/01/18 10:45:45;;;;;;;5.87;3.37;;;;;;;7.06;100.00;59045.03;5034700;28;20172;-78
2024/01/18 10:48:13;;;;;;;3.20;2.93;;;;;;;7.22;100.00;59133.09;5033326;28;20552;-75
2024/01/18 10:50:40;;;;;;;3.03;2.83;;;;;;;7.36;100.00;59377.56;5033847;28;20176;-77
2024/01/18 10:53:10;;;;;;;2.43;2.23;;;;;;;7.68;100.00;59549.50;5034021;28;20654;-77
2024/01/18 10:55:40;;;;;;;3.10;2.57;;;;;;;7.89;100.00;59781.16;5034151;28;20179;-76
2024/01/18 10:58:08;;;;;;;2.80;2.60;;;;;;;7.76;100.00;60025.94;5046099;28;20777;-74
2024/01/18 11:00:34;;;;;;;3.10;2.87;;;;;;;7.90;100.00;60033.91;5034243;28;20167;-74
2024/01/18 11:03:00;;;;;;;2.90;2.50;;;;;;;8.17;100.00;60238.91;5033963;28;20539;-74
2024/01/18 11:05:27;;;;;;;2.97;2.67;;;;;;;8.14;100.00;60217.19;5033662;28;20593;-74
2024/01/18 11:07:53;;;;;;;2.65;2.45;;;;;;;8.36;100.00;60272.31;5032497;28;20175;-80
2024/01/18 11:10:22;;;;;;;3.20;2.42;;;;;;;8.38;100.00;60384.50;5032312;28;20190;-76
2024/01/18 11:12:49;;;;;;;3.40;2.72;;;;;;;8.58;100.00;60317.25;5032400;28;20568;-80
2024/01/18 11:15:16;;;;;;;4.25;2.65;;;;;;;8.75;100.00;60354.06;5032593;28;20182;-79
2024/01/18 11:17:54;;;;;;;3.60;3.25;;;;;;;8.90;100.00;60398.28;4992153;28;20203;-78
2024/01/18 11:20:21;;;;;;;3.05;2.75;;;;;;;8.72;100.00;60551.81;4763999;28;20570;-78
2024/01/18 11:22:46;;;;;;;2.03;1.90;;;;;;;8.38;100.00;60440.47;5033044;28;20172;-77
2024/01/18 11:25:18;;;;;;;1.90;1.80;;;;;;;8.55;100.00;60367.34;5032050;28;20661;-79
2024/01/18 11:27:44;;;;;;;2.88;2.63;;;;;;;8.81;100.00;60390.75;5033723;28;20259;-79
2024/01/18 11:30:31;;;;;;;2.25;2.15;;;;;;;8.65;100.00;60411.59;5031661;28;20275;-73